Time;durP1;ratioP1;P1;durP2;ratioP2;P2;SDS_P1;SDS_P2;PMS_P1;PMS_P2;Temp;Humidity;BMP_temperature;BMP_pressure;BME280_temperature;BME280_humidity;BME280_pressure;Samples;Min_cycle;Max_cycle;Signal;HPM_P1;HPM_P2
2023/03/10 00:00:07;;;;;;;8.50;2.22;;;;;;;11.21;57.07;93204.31;5065553;28;20024;-68
2023/03/10 00:02:33;;;;;;;4.70;2.10;;;;;;;11.14;57.15;93206.78;5065091;28;20239;-68
2023/03/10 00:05:00;;;;;;;5.63;2.53;;;;;;;11.04;57.64;93216.75;5064508;28;20047;-68
2023/03/10 00:07:25;;;;;;;6.60;2.13;;;;;;;11.00;57.83;93205.19;5065302;28;20024;-68
2023/03/10 00:09:51;;;;;;;11.07;3.00;;;;;;;10.99;58.01;93202.84;5065718;28;20029;-67
2023/03/10 00:12:16;;;;;;;8.57;2.60;;;;;;;10.98;58.11;93212.75;5065400;28;20043;-68
2023/03/10 00:14:42;;;;;;;6.30;2.65;;;;;;;10.95;58.21;93221.41;5065574;28;20029;-67
2023/03/10 00:17:07;;;;;;;6.28;2.50;;;;;;;10.98;58.42;93226.06;5065527;28;20029;-67
2023/03/10 00:19:33;;;;;;;7.32;2.58;;;;;;;10.97;58.66;93224.53;5065303;28;20104;-67
2023/03/10 00:21:59;;;;;;;6.45;2.78;;;;;;;10.90;59.03;93207.50;5065203;28;20025;-67
2023/03/10 00:24:24;;;;;;;5.10;2.42;;;;;;;10.83;59.64;93213.41;5065619;28;20044;-68
2023/03/10 00:26:50;;;;;;;7.93;2.85;;;;;;;10.83;60.04;93208.84;5065640;28;20347;-68
2023/03/10 00:29:16;;;;;;;7.82;2.67;;;;;;;10.79;60.23;93201.84;5064436;28;20028;-67
2023/03/10 00:31:42;;;;;;;7.40;2.60;;;;;;;10.79;60.17;93212.50;5065039;28;20067;-67
2023/03/10 00:34:07;;;;;;;8.30;2.42;;;;;;;10.84;60.23;93212.28;5065037;28;20033;-67
2023/03/10 00:36:33;;;;;;;7.53;3.58;;;;;;;10.87;60.18;93211.63;5065039;28;20029;-67
2023/03/10 00:39:00;;;;;;;7.78;3.35;;;;;;;10.90;60.13;93205.63;5064964;28;20084;-67
2023/03/10 00:41:31;;;;;;;12.88;3.45;;;;;;;10.94;60.07;93211.06;5064902;28;20028;-68
2023/03/10 00:43:57;;;;;;;9.95;3.85;;;;;;;10.96;59.99;93204.31;5064683;28;20017;-67
2023/03/10 00:46:24;;;;;;;8.55;2.53;;;;;;;10.98;59.80;93195.97;5065060;28;20027;-68
2023/03/10 00:48:49;;;;;;;10.93;3.22;;;;;;;10.91;60.10;93201.84;5064561;28;20044;-68
2023/03/10 00:51:15;;;;;;;6.10;2.25;;;;;;;10.88;60.29;93207.06;5064741;28;20064;-67
2023/03/10 00:53:40;;;;;;;5.10;2.42;;;;;;;10.85;60.20;93197.84;5064510;28;20045;-67
2023/03/10 00:56:11;;;;;;;12.48;2.47;;;;;;;10.84;60.25;93197.06;5064717;28;20088;-67
2023/03/10 00:58:36;;;;;;;4.45;2.25;;;;;;;10.72;60.55;93201.59;5064611;28;20033;-68
2023/03/10 01:01:04;;;;;;;6.50;2.63;;;;;;;10.66;60.64;93192.25;5064483;28;20047;-67
2023/03/10 01:03:30;;;;;;;4.70;2.03;;;;;;;10.60;61.13;93200.47;5064325;28;20025;-67
2023/03/10 01:05:56;;;;;;;8.88;2.38;;;;;;;10.45;61.51;93203.72;5064551;28;20231;-68
2023/03/10 01:08:22;;;;;;;13.05;3.00;;;;;;;10.39;61.66;93207.69;5064548;28;20257;-69
2023/03/10 01:10:48;;;;;;;6.38;2.53;;;;;;;10.25;62.33;93205.28;5064295;28;20036;-68
2023/03/10 01:13:15;;;;;;;8.80;3.10;;;;;;;10.25;62.59;93206.03;5064243;28;20028;-69
2023/03/10 01:15:43;;;;;;;4.63;2.65;;;;;;;10.27;62.56;93202.28;5064334;28;20215;-68
2023/03/10 01:18:09;;;;;;;6.43;2.45;;;;;;;10.28;62.52;93195.84;5064255;28;20268;-68
2023/03/10 01:20:34;;;;;;;8.20;2.67;;;;;;;10.28;62.38;93193.19;5064051;28;20100;-68
2023/03/10 01:23:00;;;;;;;10.20;2.92;;;;;;;10.17;62.68;93180.25;5064095;28;20025;-68
2023/03/10 01:25:26;;;;;;;6.85;2.60;;;;;;;10.07;63.24;93186.00;5064096;28;20095;-68
2023/03/10 01:27:51;;;;;;;6.05;2.30;;;;;;;10.03;62.85;93180.56;5064058;28;20029;-68
2023/03/10 01:30:17;;;;;;;6.93;2.67;;;;;;;10.03;63.08;93190.41;5063911;28;20092;-68
2023/03/10 01:32:42;;;;;;;8.60;2.60;;;;;;;9.95;63.41;93177.94;5063765;28;20307;-68
2023/03/10 01:35:08;;;;;;;6.47;2.65;;;;;;;9.90;63.57;93178.94;5063747;28;20024;-69
2023/03/10 01:37:34;;;;;;;7.22;2.70;;;;;;;9.88;63.76;93177.69;5063849;28;20029;-69
2023/03/10 01:40:00;;;;;;;6.30;2.38;;;;;;;9.80;64.22;93188.06;5062736;28;20025;-68
2023/03/10 01:42:26;;;;;;;8.02;3.42;;;;;;;9.80;64.34;93184.63;5063643;28;20025;-68
2023/03/10 01:45:29;;;;;;;15.95;4.70;;;;;;;9.84;64.29;93177.56;5062657;28;20053;-68
2023/03/10 01:47:55;;;;;;;11.35;5.10;;;;;;;9.81;64.31;93188.84;5063733;28;20086;-69
2023/03/10 01:50:22;;;;;;;9.75;4.50;;;;;;;9.79;64.40;93191.84;5063633;28;20327;-68
2023/03/10 01:52:55;;;;;;;10.85;3.88;;;;;;;9.81;64.35;93194.97;5063704;28;20036;-68
2023/03/10 01:55:30;;;;;;;7.70;3.80;;;;;;;9.74;64.20;93205.34;5063743;28;20255;-68
2023/03/10 01:57:56;;;;;;;7.97;3.20;;;;;;;9.72;64.49;93207.53;5062584;28;20189;-68
2023/03/10 02:00:24;;;;;;;8.15;2.72;;;;;;;9.64;64.57;93211.81;5063632;28;20028;-69
2023/03/10 02:03:11;;;;;;;14.00;3.05;;;;;;;9.62;64.81;93199.94;5063521;28;20200;-68
2023/03/10 02:05:46;;;;;;;6.40;2.53;;;;;;;9.55;65.39;93200.44;5063382;28;20029;-68
2023/03/10 02:08:14;;;;;;;8.43;3.38;;;;;;;9.56;65.61;93202.00;5063379;28;20028;-68
2023/03/10 02:10:39;;;;;;;6.50;3.08;;;;;;;9.56;65.45;93203.88;5063538;28;20082;-68
2023/03/10 02:13:05;;;;;;;13.18;3.00;;;;;;;9.57;65.59;93205.47;5063275;28;20326;-68
2023/03/10 02:15:32;;;;;;;9.18;2.63;;;;;;;9.55;65.79;93199.69;5063195;28;20021;-68
2023/03/10 02:17:58;;;;;;;9.82;3.92;;;;;;;9.54;65.73;93198.09;5063189;28;20199;-68
2023/03/10 02:21:05;;;;;;;7.35;3.47;;;;;;;9.50;66.40;93197.97;5063306;28;20024;-68
2023/03/10 02:23:53;;;;;;;5.13;2.88;;;;;;;9.53;66.43;93204.53;5062867;28;20098;-68
2023/03/10 02:26:56;;;;;;;5.28;2.80;;;;;;;9.54;66.49;93198.88;5062967;28;20031;-68
2023/03/10 02:29:36;;;;;;;9.85;3.05;;;;;;;9.49;66.78;93206.28;5063177;28;20188;-68
2023/03/10 02:32:05;;;;;;;7.03;3.67;;;;;;;9.57;66.82;93205.47;5062884;28;20036;-68
2023/03/10 02:34:30;;;;;;;8.02;3.67;;;;;;;9.56;66.88;93203.88;5062856;28;20031;-68
2023/03/10 02:36:56;;;;;;;10.60;3.40;;;;;;;9.57;66.90;93192.94;5062881;28;20044;-68
2023/03/10 02:39:21;;;;;;;5.82;3.20;;;;;;;9.65;66.96;93196.63;5062937;28;20048;-68
2023/03/10 02:41:47;;;;;;;6.00;3.38;;;;;;;9.62;66.87;93190.06;5062948;28;20021;-69
2023/03/10 02:44:17;;;;;;;5.80;2.97;;;;;;;9.58;67.04;93185.72;5062885;28;20025;-69
2023/03/10 02:46:43;;;;;;;8.85;3.42;;;;;;;9.68;66.90;93200.53;5062793;28;20226;-68
2023/03/10 02:49:09;;;;;;;6.07;3.22;;;;;;;9.65;67.10;93199.31;5062745;28;20052;-68
2023/03/10 02:51:39;;;;;;;7.30;3.15;;;;;;;9.61;67.23;93201.06;5062371;28;20092;-68
2023/03/10 02:54:07;;;;;;;8.70;3.10;;;;;;;9.61;67.22;93195.72;5062669;28;20021;-68
2023/03/10 02:56:33;;;;;;;6.47;2.85;;;;;;;9.63;67.55;93186.31;5062576;28;20025;-68
2023/03/10 02:58:59;;;;;;;5.57;3.10;;;;;;;9.69;67.12;93189.56;5062773;28;20196;-68
2023/03/10 03:01:25;;;;;;;13.23;3.45;;;;;;;9.78;66.98;93202.81;5062807;28;20029;-67
2023/03/10 03:03:51;;;;;;;8.25;3.33;;;;;;;9.79;66.70;93196.38;5062764;28;20027;-68
2023/03/10 03:06:17;;;;;;;6.85;3.00;;;;;;;9.80;66.80;93185.41;5062554;28;20096;-68
2023/03/10 03:08:42;;;;;;;6.90;2.72;;;;;;;9.87;66.42;93197.41;5062515;28;20082;-68
2023/03/10 03:11:08;;;;;;;8.00;2.88;;;;;;;9.92;66.48;93192.69;5062343;28;20032;-67
2023/03/10 03:13:33;;;;;;;5.95;2.78;;;;;;;9.90;66.49;93186.13;5062627;28;20033;-67
2023/03/10 03:15:59;;;;;;;5.70;3.03;;;;;;;9.93;66.30;93188.13;5062533;28;20052;-68
2023/03/10 03:18:24;;;;;;;6.88;2.40;;;;;;;9.89;66.22;93180.03;5062586;28;20031;-68
2023/03/10 03:20:50;;;;;;;5.13;2.40;;;;;;;9.86;66.28;93183.34;5062562;28;20025;-68
2023/03/10 03:23:15;;;;;;;5.70;2.08;;;;;;;9.85;66.49;93184.47;5062299;28;20025;-69
2023/03/10 03:25:41;;;;;;;8.70;2.67;;;;;;;9.90;66.84;93188.81;5062543;28;20017;-68
2023/03/10 03:28:09;;;;;;;7.30;2.88;;;;;;;9.95;66.25;93188.59;5062415;28;20017;-68
2023/03/10 03:30:35;;;;;;;4.82;2.10;;;;;;;9.94;66.20;93187.81;5062491;28;20024;-68
2023/03/10 03:33:01;;;;;;;7.60;2.00;;;;;;;9.89;65.95;93182.72;5062243;28;20020;-68
2023/03/10 03:35:33;;;;;;;4.47;1.90;;;;;;;9.83;66.23;93171.47;5062252;28;20024;-68
2023/03/10 03:37:59;;;;;;;4.45;2.10;;;;;;;9.86;66.10;93171.91;5062158;28;20025;-68
2023/03/10 03:40:27;;;;;;;5.53;1.80;;;;;;;9.90;66.43;93172.84;5062466;28;20045;-68
2023/03/10 03:42:53;;;;;;;5.25;2.10;;;;;;;9.93;66.38;93177.50;5062365;28;20020;-68
2023/03/10 03:45:22;;;;;;;4.60;2.55;;;;;;;9.98;66.41;93177.31;5062037;28;20039;-68
2023/03/10 03:47:48;;;;;;;5.90;2.53;;;;;;;9.99;66.18;93184.19;5062240;28;20220;-68
2023/03/10 03:50:15;;;;;;;6.03;1.80;;;;;;;10.02;66.02;93188.88;5062093;28;20024;-68
2023/03/10 03:52:41;;;;;;;4.72;2.20;;;;;;;10.04;66.06;93186.66;5062168;28;20206;-68
2023/03/10 03:55:08;;;;;;;9.57;2.50;;;;;;;10.06;66.09;93176.47;5062140;28;20021;-68
2023/03/10 03:57:34;;;;;;;6.38;2.22;;;;;;;9.98;66.37;93179.97;5060818;28;20024;-68
2023/03/10 03:59:59;;;;;;;4.80;1.95;;;;;;;10.04;66.21;93182.09;5062141;28;20114;-68
2023/03/10 04:02:25;;;;;;;6.90;2.42;;;;;;;10.07;66.20;93179.91;5062349;28;20017;-68
2023/03/10 04:04:52;;;;;;;5.75;2.13;;;;;;;10.08;66.06;93178.81;5065606;28;20326;-68
2023/03/10 04:07:18;;;;;;;3.67;1.67;;;;;;;10.14;66.11;93191.59;5065752;28;20316;-68
2023/03/10 04:09:43;;;;;;;3.95;1.77;;;;;;;10.16;65.81;93194.69;5065486;28;20035;-69
2023/03/10 04:12:09;;;;;;;6.10;2.03;;;;;;;10.20;65.73;93184.19;5065780;28;20197;-69
2023/03/10 04:14:36;;;;;;;8.15;2.08;;;;;;;10.23;65.85;93186.94;5065434;28;20338;-68
2023/03/10 04:17:02;;;;;;;5.75;2.10;;;;;;;10.23;65.52;93178.97;5065367;28;20223;-68
2023/03/10 04:19:27;;;;;;;11.32;2.10;;;;;;;10.31;65.43;93188.00;5065374;28;20021;-68
2023/03/10 04:21:53;;;;;;;3.03;1.67;;;;;;;10.35;65.50;93177.50;5065452;28;20024;-68
2023/03/10 04:24:18;;;;;;;8.10;1.70;;;;;;;10.34;65.57;93170.59;5065523;28;20021;-67
2023/03/10 04:26:44;;;;;;;4.07;1.92;;;;;;;10.37;65.57;93169.94;5065361;28;20025;-68
2023/03/10 04:29:09;;;;;;;6.15;1.85;;;;;;;10.37;65.42;93177.94;5064042;28;20086;-68
2023/03/10 04:31:35;;;;;;;5.40;1.77;;;;;;;10.37;65.87;93183.28;5065096;28;20327;-68
2023/03/10 04:34:01;;;;;;;8.70;2.63;;;;;;;10.33;65.32;93177.03;5064945;28;20091;-68
2023/03/10 04:36:26;;;;;;;5.03;2.50;;;;;;;10.32;65.43;93175.47;5065043;28;20275;-68
2023/03/10 04:38:52;;;;;;;15.18;2.67;;;;;;;10.33;65.38;93166.38;5065191;28;20029;-68
2023/03/10 04:41:17;;;;;;;10.02;2.80;;;;;;;10.35;65.41;93164.16;5063877;28;20056;-68
2023/03/10 04:43:42;;;;;;;5.50;2.67;;;;;;;10.30;65.52;93159.84;5065034;28;20017;-68
2023/03/10 04:46:08;;;;;;;6.75;2.70;;;;;;;10.31;65.35;93164.03;5064963;28;20239;-68
2023/03/10 04:48:34;;;;;;;4.63;2.15;;;;;;;10.26;65.63;93153.56;5064919;28;20067;-68
2023/03/10 04:51:05;;;;;;;5.85;2.45;;;;;;;10.28;65.68;93155.91;5065010;28;20021;-68
2023/03/10 04:53:31;;;;;;;7.60;3.40;;;;;;;10.32;65.63;93162.16;5064723;28;20315;-68
2023/03/10 04:55:58;;;;;;;10.75;4.25;;;;;;;10.33;65.48;93155.72;5064818;28;20309;-68
2023/03/10 04:58:24;;;;;;;17.20;8.23;;;;;;;10.30;65.60;93157.16;5064883;28;20091;-68
2023/03/10 05:00:49;;;;;;;22.10;10.45;;;;;;;10.29;65.83;93149.47;5064771;28;20028;-68
2023/03/10 05:03:15;;;;;;;22.13;11.10;;;;;;;10.25;65.98;93144.00;5064540;28;20324;-69
2023/03/10 05:05:41;;;;;;;18.27;9.50;;;;;;;10.27;66.34;93138.38;5064607;28;20271;-68
2023/03/10 05:08:07;;;;;;;18.17;8.65;;;;;;;10.29;66.08;93136.16;5064650;28;20092;-69
2023/03/10 05:10:32;;;;;;;18.15;7.75;;;;;;;10.30;66.21;93137.72;5063997;28;20029;-69
2023/03/10 05:12:58;;;;;;;27.65;9.43;;;;;;;10.29;66.16;93125.50;5064244;28;20032;-69
2023/03/10 05:15:23;;;;;;;26.65;10.38;;;;;;;10.34;65.86;93130.63;5064245;28;20274;-69
2023/03/10 05:17:49;;;;;;;30.58;10.02;;;;;;;10.28;65.95;93129.25;5064469;28;20025;-69
2023/03/10 05:20:15;;;;;;;22.60;8.50;;;;;;;10.25;66.00;93125.38;5064355;28;20051;-68
2023/03/10 05:22:41;;;;;;;19.52;7.55;;;;;;;10.23;66.24;93120.38;5064136;28;20055;-68
2023/03/10 05:25:08;;;;;;;20.40;7.07;;;;;;;10.26;66.20;93118.94;5064055;28;20025;-68
2023/03/10 05:27:35;;;;;;;15.55;5.90;;;;;;;10.33;66.03;93123.78;5064305;28;20021;-68
2023/03/10 05:30:02;;;;;;;14.68;6.15;;;;;;;10.38;66.10;93120.88;5064275;28;20037;-68
2023/03/10 05:32:28;;;;;;;26.50;7.00;;;;;;;10.43;66.04;93116.13;5063988;28;20070;-68
2023/03/10 05:34:54;;;;;;;27.95;8.27;;;;;;;10.52;65.83;93116.06;5064104;28;20029;-68
2023/03/10 05:37:19;;;;;;;24.42;6.63;;;;;;;10.52;65.70;93120.59;5063879;28;20025;-68
2023/03/10 05:39:45;;;;;;;18.63;5.20;;;;;;;10.51;65.67;93119.03;5064040;28;20044;-68
2023/03/10 05:42:13;;;;;;;12.90;4.82;;;;;;;10.52;65.78;93116.06;5063947;28;20040;-68
2023/03/10 05:44:39;;;;;;;9.63;3.90;;;;;;;10.60;65.82;93117.84;5063916;28;20020;-68
2023/03/10 05:47:05;;;;;;;14.10;5.28;;;;;;;10.69;65.77;93114.31;5063792;28;20338;-68
2023/03/10 05:49:31;;;;;;;10.57;3.75;;;;;;;10.71;65.46;93112.09;5063801;28;20052;-68
2023/03/10 05:51:57;;;;;;;5.05;2.80;;;;;;;10.73;65.42;93099.97;5063817;28;20074;-68
2023/03/10 05:54:23;;;;;;;9.35;3.35;;;;;;;10.77;65.34;93103.53;5063911;28;20084;-68
2023/03/10 05:56:48;;;;;;;13.73;3.92;;;;;;;10.84;65.79;93102.97;5063740;28;20078;-68
2023/03/10 05:59:14;;;;;;;9.93;4.22;;;;;;;10.83;65.71;93104.88;5063541;28;20029;-68
2023/03/10 06:01:39;;;;;;;8.40;3.70;;;;;;;10.87;65.69;93104.19;5063478;28;20045;-68
2023/03/10 06:04:05;;;;;;;10.90;3.85;;;;;;;10.93;65.46;93098.31;5063680;28;20028;-68
2023/03/10 06:06:30;;;;;;;16.77;4.45;;;;;;;11.01;65.47;93110.78;5063599;28;20035;-68
2023/03/10 06:08:56;;;;;;;16.30;4.30;;;;;;;11.10;65.17;93101.88;5063579;28;20033;-68
2023/03/10 06:11:21;;;;;;;15.70;5.80;;;;;;;11.16;65.07;93106.66;5063263;28;20055;-68
2023/03/10 06:13:47;;;;;;;20.73;7.28;;;;;;;11.21;65.14;93108.31;5063241;28;20092;-68
2023/03/10 06:16:12;;;;;;;22.42;6.93;;;;;;;11.30;64.70;93106.31;5063417;28;20070;-69
2023/03/10 06:18:38;;;;;;;24.13;7.63;;;;;;;11.36;64.62;93126.31;5063392;28;20307;-69
2023/03/10 06:21:05;;;;;;;20.85;7.50;;;;;;;11.43;64.49;93117.72;5063322;28;20031;-69
2023/03/10 06:23:31;;;;;;;26.73;6.20;;;;;;;11.47;64.44;93110.59;5063199;28;20373;-69
2023/03/10 06:26:05;;;;;;;20.75;6.40;;;;;;;11.52;64.54;93109.59;5062767;28;20029;-69
2023/03/10 06:28:34;;;;;;;21.65;6.10;;;;;;;11.54;64.06;93112.69;5063113;28;20033;-69
2023/03/10 06:31:01;;;;;;;23.42;5.93;;;;;;;11.61;63.44;93121.69;5061950;28;20311;-69
2023/03/10 06:33:27;;;;;;;18.67;4.68;;;;;;;11.66;62.92;93118.00;5063004;28;20092;-70
2023/03/10 06:35:53;;;;;;;20.90;6.72;;;;;;;11.68;62.67;93107.78;5063247;28;20088;-70
2023/03/10 06:38:19;;;;;;;22.25;6.80;;;;;;;11.71;62.32;93104.44;5063150;28;20016;-69
2023/03/10 06:40:45;;;;;;;20.40;5.68;;;;;;;11.73;62.87;93109.44;5062855;28;20262;-70
2023/03/10 06:43:10;;;;;;;19.45;6.85;;;;;;;11.72;62.51;93114.00;5062711;28;20013;-70
2023/03/10 06:45:36;;;;;;;17.70;5.80;;;;;;;11.81;62.04;93114.66;5062163;28;20048;-69
2023/03/10 06:48:02;;;;;;;11.05;4.97;;;;;;;11.88;61.36;93118.63;5062728;28;20112;-68
2023/03/10 06:50:27;;;;;;;19.45;5.82;;;;;;;11.88;61.52;93110.63;5062676;28;20025;-68
2023/03/10 06:52:53;;;;;;;17.25;6.10;;;;;;;11.90;61.34;93113.75;5062621;28;20224;-69
2023/03/10 06:55:18;;;;;;;10.68;5.38;;;;;;;11.95;61.00;93122.31;5062353;28;20254;-70
2023/03/10 06:57:43;;;;;;;15.55;5.35;;;;;;;12.02;60.28;93127.06;5062508;28;20092;-69
2023/03/10 07:00:14;;;;;;;14.20;3.40;;;;;;;12.03;60.08;93124.06;5062644;28;20048;-69
2023/03/10 07:02:40;;;;;;;10.50;3.78;;;;;;;12.05;59.72;93121.06;5062558;28;20084;-68
2023/03/10 07:05:07;;;;;;;14.52;4.05;;;;;;;12.08;59.49;93115.03;5062710;28;20027;-67
2023/03/10 07:07:33;;;;;;;17.75;4.70;;;;;;;12.10;59.51;93125.38;5062440;28;20025;-68
2023/03/10 07:09:58;;;;;;;18.92;4.88;;;;;;;12.12;59.44;93120.47;5062630;28;20275;-68
2023/03/10 07:12:24;;;;;;;12.93;4.38;;;;;;;12.17;59.42;93113.00;5062557;28;20070;-69
2023/03/10 07:14:50;;;;;;;28.33;7.03;;;;;;;12.24;59.49;93110.50;5062631;28;20028;-68
2023/03/10 07:17:15;;;;;;;24.58;8.23;;;;;;;12.30;59.61;93100.34;5062423;28;20032;-69
2023/03/10 07:19:40;;;;;;;24.23;6.10;;;;;;;12.38;59.57;93107.44;5062676;28;20245;-68
2023/03/10 07:22:06;;;;;;;19.40;5.53;;;;;;;12.50;59.58;93105.84;5062369;28;20021;-70
2023/03/10 07:24:31;;;;;;;28.35;4.57;;;;;;;12.59;59.59;93090.41;5062373;28;20036;-68
2023/03/10 07:27:01;;;;;;;19.65;5.75;;;;;;;12.65;59.53;93086.34;5062590;28;20275;-68
2023/03/10 07:29:26;;;;;;;13.38;4.70;;;;;;;12.81;59.31;93089.03;5062670;28;20043;-67
2023/03/10 07:31:51;;;;;;;13.85;4.95;;;;;;;12.94;58.96;93092.38;5062520;28;20303;-67
2023/03/10 07:34:17;;;;;;;36.53;5.35;;;;;;;13.03;58.30;93091.09;5062560;28;20047;-67
2023/03/10 07:36:42;;;;;;;19.75;7.18;;;;;;;13.10;57.87;93100.41;5062568;28;20079;-67
2023/03/10 07:39:08;;;;;;;21.05;5.40;;;;;;;13.19;57.50;93109.03;5063872;28;20060;-68
2023/03/10 07:41:33;;;;;;;16.17;4.93;;;;;;;13.20;57.24;93095.28;5066475;28;20017;-67
2023/03/10 07:43:59;;;;;;;17.33;5.35;;;;;;;13.23;57.30;93088.50;5066397;28;20009;-67
2023/03/10 07:46:24;;;;;;;21.50;5.63;;;;;;;13.27;56.97;93077.84;5066449;28;20017;-67
2023/03/10 07:48:51;;;;;;;24.40;5.53;;;;;;;13.26;56.81;93079.75;5066026;28;20032;-67
2023/03/10 07:51:17;;;;;;;15.65;4.65;;;;;;;13.35;57.44;93074.22;5066107;28;20020;-67
2023/03/10 07:53:43;;;;;;;14.65;4.60;;;;;;;13.35;57.10;93064.31;5066099;28;20048;-68
2023/03/10 07:56:11;;;;;;;20.73;4.22;;;;;;;13.47;56.62;93065.31;5066004;28;20028;-67
2023/03/10 07:58:36;;;;;;;19.30;4.32;;;;;;;13.55;56.87;93056.31;5066102;28;20020;-67
2023/03/10 08:01:03;;;;;;;19.42;4.72;;;;;;;13.58;56.58;93052.94;5065918;28;20024;-67
2023/03/10 08:03:28;;;;;;;10.55;3.40;;;;;;;13.73;57.02;93054.00;5065938;28;20096;-67
2023/03/10 08:05:54;;;;;;;15.27;4.43;;;;;;;13.87;56.63;93046.25;5066003;28;20033;-67
2023/03/10 08:08:20;;;;;;;24.25;5.32;;;;;;;13.96;56.03;93046.81;5065915;28;20021;-68
2023/03/10 08:10:46;;;;;;;20.98;4.70;;;;;;;14.05;55.52;93057.31;5065607;28;20028;-67
2023/03/10 08:13:12;;;;;;;14.75;4.80;;;;;;;14.11;55.27;93041.72;5065753;28;20087;-67
2023/03/10 08:15:38;;;;;;;20.42;5.03;;;;;;;14.16;55.41;93036.81;5065574;28;20020;-67
2023/03/10 08:18:06;;;;;;;9.27;4.28;;;;;;;14.17;55.06;93026.91;5065645;28;20372;-68
2023/03/10 08:20:32;;;;;;;24.38;4.38;;;;;;;14.17;54.57;93026.91;5065559;28;20071;-67
2023/03/10 08:22:58;;;;;;;11.25;3.15;;;;;;;14.20;54.09;93024.25;5065129;28;20113;-67
2023/03/10 08:25:23;;;;;;;13.07;3.55;;;;;;;14.22;53.39;93029.28;5065453;28;20032;-66
2023/03/10 08:27:49;;;;;;;23.67;4.15;;;;;;;14.10;53.71;93021.41;5065379;28;20208;-67
2023/03/10 08:30:15;;;;;;;6.85;3.17;;;;;;;14.12;54.15;93014.53;5064199;28;20028;-67
2023/03/10 08:32:40;;;;;;;13.15;3.17;;;;;;;14.19;54.15;93003.97;5065013;28;20029;-67
2023/03/10 08:35:07;;;;;;;13.02;3.60;;;;;;;14.27;54.30;93004.88;5065239;28;20258;-66
2023/03/10 08:37:32;;;;;;;15.00;3.50;;;;;;;14.41;54.12;92997.06;5065201;28;20028;-66
2023/03/10 08:39:58;;;;;;;12.50;4.10;;;;;;;14.47;54.33;92986.84;5064995;28;20028;-67
2023/03/10 08:42:24;;;;;;;9.85;3.83;;;;;;;14.61;53.72;92986.28;5065153;28;20196;-67
2023/03/10 08:44:56;;;;;;;11.52;4.78;;;;;;;14.73;53.29;92983.41;5063624;28;20028;-68
2023/03/10 08:47:22;;;;;;;22.85;6.13;;;;;;;14.91;52.78;92980.25;5065190;28;20331;-68
2023/03/10 08:49:48;;;;;;;17.13;5.30;;;;;;;14.99;52.68;92971.94;5064277;28;20225;-68
2023/03/10 08:52:13;;;;;;;12.82;4.05;;;;;;;15.12;52.08;92974.38;5064674;28;20059;-68
2023/03/10 08:54:39;;;;;;;10.68;3.25;;;;;;;15.21;51.37;92966.84;5064768;28;20021;-68
2023/03/10 08:57:04;;;;;;;16.80;3.17;;;;;;;15.21;50.30;92969.53;5064997;28;20040;-68
2023/03/10 08:59:30;;;;;;;14.65;3.38;;;;;;;15.17;50.92;92961.44;5064931;28;20071;-68
2023/03/10 09:01:55;;;;;;;12.82;3.05;;;;;;;15.23;51.18;92967.28;5064729;28;20216;-67
2023/03/10 09:04:21;;;;;;;11.50;2.83;;;;;;;15.33;51.05;92972.00;5064846;28;20021;-69
2023/03/10 09:06:46;;;;;;;10.90;4.32;;;;;;;15.39;49.85;92965.19;5064579;28;20244;-70
2023/03/10 09:09:12;;;;;;;12.40;3.00;;;;;;;15.29;50.09;92963.13;5064412;28;20051;-69
2023/03/10 09:11:39;;;;;;;11.38;3.03;;;;;;;15.24;51.02;92942.75;5064595;28;20022;-68
2023/03/10 09:14:06;;;;;;;12.18;2.88;;;;;;;15.28;51.22;92956.19;5064518;28;20088;-69
2023/03/10 09:16:32;;;;;;;10.65;3.05;;;;;;;15.51;49.43;92966.06;5064528;28;20040;-69
2023/03/10 09:19:00;;;;;;;7.43;2.63;;;;;;;15.47;49.49;92957.19;5063226;28;20112;-68
2023/03/10 09:21:27;;;;;;;12.18;2.95;;;;;;;15.48;50.27;92948.00;5064348;28;20037;-69
2023/03/10 09:23:52;;;;;;;14.63;3.03;;;;;;;15.56;50.06;92934.28;5064559;28;20084;-69
2023/03/10 09:26:19;;;;;;;11.30;3.00;;;;;;;15.66;49.39;92935.56;5063977;28;20025;-69
2023/03/10 09:28:46;;;;;;;15.32;3.63;;;;;;;15.69;49.59;92940.19;5064222;28;20045;-69
2023/03/10 09:31:16;;;;;;;8.95;3.20;;;;;;;15.69;48.88;92934.81;5064154;28;20215;-69
2023/03/10 09:33:42;;;;;;;18.20;4.07;;;;;;;15.55;49.34;92940.81;5063874;28;20073;-71
2023/03/10 09:36:08;;;;;;;7.53;3.72;;;;;;;15.56;49.57;92939.66;5063809;28;20016;-70
2023/03/10 09:38:35;;;;;;;13.60;3.50;;;;;;;15.57;50.14;92935.06;5063879;28;20024;-70
2023/03/10 09:41:24;;;;;;;10.70;3.85;;;;;;;15.68;49.86;92937.88;5064003;28;20033;-70
2023/03/10 09:43:58;;;;;;;12.98;3.60;;;;;;;15.71;49.18;92926.38;5063821;28;20100;-70
2023/03/10 09:46:37;;;;;;;7.90;2.78;;;;;;;15.71;48.66;92923.69;5063909;28;20028;-70
2023/03/10 09:49:22;;;;;;;12.35;4.18;;;;;;;15.59;49.22;92909.41;5063602;28;20044;-69
2023/03/10 09:51:50;;;;;;;14.40;4.03;;;;;;;15.42;49.59;92918.78;5063587;28;20025;-70
2023/03/10 09:54:32;;;;;;;12.77;3.40;;;;;;;15.38;49.96;92915.28;5063688;28;20059;-70
2023/03/10 09:56:58;;;;;;;13.50;3.30;;;;;;;15.38;50.72;92909.91;5063475;28;20111;-69
2023/03/10 09:59:40;;;;;;;12.13;3.75;;;;;;;15.40;51.22;92918.38;5063597;28;20056;-70
2023/03/10 10:02:29;;;;;;;12.13;3.70;;;;;;;15.51;50.90;92906.97;5062638;28;20033;-69
2023/03/10 10:04:59;;;;;;;12.73;4.45;;;;;;;15.56;50.30;92898.63;5063667;28;20048;-69
2023/03/10 10:07:31;;;;;;;10.60;4.63;;;;;;;15.63;50.41;92896.00;5063338;28;20024;-68
2023/03/10 10:10:08;;;;;;;12.50;4.57;;;;;;;15.58;50.58;92885.59;5063289;28;20315;-68
2023/03/10 10:12:34;;;;;;;12.98;4.10;;;;;;;15.70;50.52;92879.19;5063242;28;20024;-68
2023/03/10 10:15:17;;;;;;;11.02;3.88;;;;;;;15.81;49.38;92886.25;5062166;28;20029;-68
2023/03/10 10:18:12;;;;;;;22.65;4.05;;;;;;;15.88;49.39;92890.91;5063166;28;20031;-68
2023/03/10 10:20:45;;;;;;;13.00;3.95;;;;;;;15.88;48.46;92887.47;5062885;28;20017;-69
2023/03/10 10:23:27;;;;;;;15.13;4.60;;;;;;;15.83;49.27;92891.22;5062984;28;20031;-68
2023/03/10 10:25:53;;;;;;;6.85;3.30;;;;;;;15.81;49.77;92877.41;5062817;28;20020;-68
2023/03/10 10:28:35;;;;;;;11.93;4.35;;;;;;;15.88;49.63;92882.09;5061937;28;20377;-67
2023/03/10 10:31:31;;;;;;;11.02;3.05;;;;;;;15.94;49.74;92878.69;5062733;28;20095;-67
2023/03/10 10:33:56;;;;;;;14.00;4.30;;;;;;;15.98;49.59;92882.19;5057922;28;20350;-68
2023/03/10 10:36:29;;;;;;;15.07;3.53;;;;;;;16.01;49.65;92875.28;5062744;28;20091;-68
2023/03/10 10:38:56;;;;;;;15.40;4.13;;;;;;;16.00;50.05;92871.81;5062503;28;20058;-70
2023/03/10 10:41:32;;;;;;;9.23;3.70;;;;;;;15.96;49.53;92862.97;5062992;28;20024;-67
2023/03/10 10:44:05;;;;;;;21.75;4.10;;;;;;;15.95;49.62;92868.69;5062475;28;20017;-67
2023/03/10 10:46:31;;;;;;;21.23;4.53;;;;;;;15.96;50.21;92862.19;5062532;28;20323;-68
2023/03/10 10:49:01;;;;;;;23.67;4.97;;;;;;;15.94;50.07;92856.41;5061910;28;20044;-69
2023/03/10 10:51:32;;;;;;;9.23;4.20;;;;;;;15.91;50.10;92867.91;5060611;28;20612;-69
2023/03/10 10:54:01;;;;;;;16.83;4.20;;;;;;;15.83;49.59;92864.38;5060661;28;20025;-69
2023/03/10 10:56:27;;;;;;;15.43;3.50;;;;;;;15.80;50.18;92865.88;5059758;28;20036;-68
2023/03/10 10:59:17;;;;;;;17.83;3.72;;;;;;;15.81;50.91;92867.44;5061177;28;20049;-69
2023/03/10 11:01:53;;;;;;;17.38;4.53;;;;;;;15.81;52.13;92861.28;5061417;28;20017;-69
2023/03/10 11:04:20;;;;;;;21.35;6.03;;;;;;;15.83;52.35;92865.16;5061574;28;20025;-69
2023/03/10 11:06:46;;;;;;;11.40;4.63;;;;;;;15.87;53.58;92859.03;5062485;28;20074;-69
2023/03/10 11:09:18;;;;;;;19.42;6.57;;;;;;;15.81;55.21;92845.16;5062371;28;20229;-69
2023/03/10 11:11:43;;;;;;;19.08;5.75;;;;;;;15.77;55.51;92828.22;5062363;28;20024;-70
2023/03/10 11:14:15;;;;;;;19.42;5.10;;;;;;;15.59;54.66;92822.66;5066332;28;20124;-69
2023/03/10 11:16:50;;;;;;;12.80;6.27;;;;;;;15.52;55.61;92806.50;5066340;28;20040;-68
2023/03/10 11:19:34;;;;;;;7.82;3.67;;;;;;;15.51;55.93;92804.94;5066267;28;20239;-69
2023/03/10 11:22:06;;;;;;;5.95;2.38;;;;;;;15.45;56.31;92791.88;5066130;28;20021;-68
2023/03/10 11:24:43;;;;;;;18.27;2.78;;;;;;;15.49;56.53;92791.09;5066084;28;20032;-69
2023/03/10 11:27:17;;;;;;;11.40;2.72;;;;;;;15.53;56.51;92795.41;5066115;28;20033;-70
2023/03/10 11:30:01;;;;;;;8.02;4.00;;;;;;;15.62;56.38;92763.63;5066119;28;20075;-69
2023/03/10 11:32:46;;;;;;;9.70;3.30;;;;;;;15.72;57.84;92759.50;5065847;28;20363;-69